Time;durP1;ratioP1;P1;durP2;ratioP2;P2;SDS_P1;SDS_P2;PMS_P1;PMS_P2;Temp;Humidity;BMP_temperature;BMP_pressure;BME280_temperature;BME280_humidity;BME280_pressure;Samples;Min_cycle;Max_cycle;Signal;HPM_P1;HPM_P2
2023/05/01 00:01:54;;;;;;;1.20;1.10;;;18.30;35.00;;;;;;6223919;23;20140;-83
2023/05/01 00:04:21;;;;;;;1.63;1.35;;;18.30;35.00;;;;;;6121899;23;20179;-83
2023/05/01 00:06:47;;;;;;;1.40;0.88;;;18.30;35.00;;;;;;6122041;23;20171;-84
2023/05/01 00:09:13;;;;;;;1.33;1.20;;;18.30;34.90;;;;;;6123177;23;20136;-83
2023/05/01 00:11:39;;;;;;;1.20;1.00;;;18.30;35.00;;;;;;6226953;23;20160;-83
2023/05/01 00:14:05;;;;;;;1.35;1.10;;;18.30;35.00;;;;;;6227366;23;20568;-83
2023/05/01 00:16:31;;;;;;;1.50;0.90;;;18.30;35.00;;;;;;6125141;23;20178;-83
2023/05/01 00:18:57;;;;;;;1.35;1.20;;;18.30;35.00;;;;;;6125296;23;20164;-83
2023/05/01 00:21:23;;;;;;;1.63;1.00;;;18.30;35.10;;;;;;6202162;23;20579;-83
2023/05/01 00:23:49;;;;;;;1.23;1.10;;;18.30;35.00;;;;;;6125032;23;20167;-83
2023/05/01 00:26:14;;;;;;;1.33;1.10;;;18.20;35.00;;;;;;6125148;23;20190;-83
2023/05/01 00:28:40;;;;;;;1.10;1.00;;;18.20;35.00;;;;;;6125181;23;20140;-83
2023/05/01 00:31:06;;;;;;;1.05;0.90;;;18.30;35.10;;;;;;6227515;23;20144;-84
2023/05/01 00:33:32;;;;;;;1.20;1.02;;;18.30;35.10;;;;;;6226914;23;20203;-83
2023/05/01 00:35:58;;;;;;;1.02;0.93;;;18.20;35.10;;;;;;6124883;23;20607;-83
2023/05/01 00:38:24;;;;;;;0.95;0.90;;;18.20;35.10;;;;;;6125038;23;20586;-83
2023/05/01 00:40:50;;;;;;;1.27;1.15;;;18.20;35.10;;;;;;6125067;23;20223;-83
2023/05/01 00:43:16;;;;;;;1.00;0.90;;;18.30;35.20;;;;;;6124837;23;20200;-83
2023/05/01 00:45:44;;;;;;;1.05;0.98;;;18.20;35.20;;;;;;6124843;23;20215;-83
2023/05/01 00:48:10;;;;;;;1.30;1.10;;;18.30;35.30;;;;;;6125229;23;20517;-83
2023/05/01 00:50:37;;;;;;;2.55;1.30;;;18.30;35.20;;;;;;6227150;23;20548;-83
2023/05/01 00:53:03;;;;;;;1.15;1.05;;;18.20;35.20;;;;;;6227412;23;20219;-83
2023/05/01 00:55:29;;;;;;;1.48;1.20;;;18.20;35.20;;;;;;6125113;23;20148;-83
2023/05/01 00:57:56;;;;;;;1.20;0.98;;;18.20;35.30;;;;;;6226491;23;20215;-84
2023/05/01 01:00:23;;;;;;;1.95;1.23;;;18.20;35.30;;;;;;6226395;23;20219;-83
2023/05/01 01:02:49;;;;;;;1.15;1.05;;;18.30;35.30;;;;;;6124666;23;20144;-83
2023/05/01 01:05:15;;;;;;;1.13;1.02;;;18.20;35.30;;;;;;6226952;23;20148;-84
2023/05/01 01:07:50;;;;;;;1.17;1.08;;;18.20;35.30;;;;;;6124877;23;20128;-83
2023/05/01 01:10:34;;;;;;;1.20;0.95;;;18.20;35.30;;;;;;6226846;23;20159;-83
2023/05/01 01:13:26;;;;;;;1.20;1.10;;;18.20;35.40;;;;;;6154284;23;20241;-83
2023/05/01 01:16:12;;;;;;;1.33;1.10;;;18.10;35.30;;;;;;6160933;23;20163;-83
2023/05/01 01:18:42;;;;;;;1.00;0.90;;;18.20;35.40;;;;;;6225817;23;20140;-83
2023/05/01 01:21:35;;;;;;;1.20;1.10;;;18.20;35.40;;;;;;6225133;23;20228;-83
2023/05/01 01:24:26;;;;;;;0.98;0.90;;;18.20;35.50;;;;;;6166262;23;20622;-83
2023/05/01 01:27:19;;;;;;;1.50;0.90;;;18.20;35.40;;;;;;6123233;23;20191;-83
2023/05/01 01:30:16;;;;;;;1.10;1.00;;;18.20;35.40;;;;;;6123245;23;20137;-84
2023/05/01 01:33:00;;;;;;;1.08;0.98;;;18.10;35.50;;;;;;6198841;23;20140;-83
2023/05/01 01:35:27;;;;;;;1.17;1.08;;;18.20;35.50;;;;;;6093962;23;20141;-83
2023/05/01 01:38:00;;;;;;;1.27;1.17;;;18.10;35.60;;;;;;6093732;23;20138;-83
2023/05/01 01:40:37;;;;;;;1.60;1.05;;;18.20;35.60;;;;;;6093620;23;20477;-83
2023/05/01 01:43:07;;;;;;;1.02;0.98;;;18.20;35.60;;;;;;6093892;23;20177;-84
2023/05/01 01:45:40;;;;;;;1.55;1.10;;;18.20;35.60;;;;;;6195038;23;20209;-84
2023/05/01 01:48:07;;;;;;;1.20;1.10;;;18.20;35.70;;;;;;6170390;23;20149;-83
2023/05/01 01:50:33;;;;;;;1.20;1.10;;;18.20;35.70;;;;;;6194693;23;20137;-83
2023/05/01 01:52:59;;;;;;;1.17;1.08;;;18.20;35.70;;;;;;6194864;23;20480;-83
2023/05/01 01:55:30;;;;;;;1.10;1.00;;;18.20;35.70;;;;;;6093627;23;20137;-84
2023/05/01 01:57:56;;;;;;;1.05;0.90;;;18.20;35.70;;;;;;6120015;23;20564;-83
2023/05/01 02:00:22;;;;;;;1.50;1.10;;;18.20;35.70;;;;;;6093950;23;20465;-84
2023/05/01 02:02:48;;;;;;;0.93;0.93;;;18.10;35.70;;;;;;6093454;23;20137;-83
2023/05/01 02:05:15;;;;;;;1.13;1.02;;;18.10;35.70;;;;;;6093700;23;20216;-83
2023/05/01 02:07:41;;;;;;;1.08;0.90;;;18.10;35.70;;;;;;6194533;23;20157;-84
2023/05/01 02:10:08;;;;;;;1.77;1.20;;;18.10;35.80;;;;;;6093661;23;20137;-83
2023/05/01 02:12:35;;;;;;;0.90;0.90;;;18.10;35.70;;;;;;6194369;23;20133;-83
2023/05/01 02:15:01;;;;;;;1.50;1.10;;;18.10;35.70;;;;;;6194811;23;20149;-83
2023/05/01 02:17:27;;;;;;;2.25;1.20;;;18.10;35.80;;;;;;6168979;23;20611;-83
2023/05/01 02:19:53;;;;;;;1.55;1.20;;;18.00;35.80;;;;;;6195289;23;20525;-83
2023/05/01 02:22:20;;;;;;;1.23;1.13;;;18.10;35.80;;;;;;6093495;23;20507;-83
2023/05/01 02:24:46;;;;;;;1.10;1.00;;;18.10;35.80;;;;;;6093336;23;20215;-83
2023/05/01 02:27:18;;;;;;;0.93;0.93;;;18.10;35.80;;;;;;6093546;23;20137;-83
2023/05/01 02:29:44;;;;;;;1.13;1.02;;;18.10;35.80;;;;;;6169958;23;20231;-83
2023/05/01 02:32:11;;;;;;;1.13;1.02;;;18.10;35.90;;;;;;6169617;23;20526;-83
2023/05/01 02:34:37;;;;;;;1.27;1.17;;;18.10;35.90;;;;;;6216625;23;20245;-83
2023/05/01 02:37:04;;;;;;;0.93;0.90;;;18.00;35.90;;;;;;6224706;23;20164;-83
2023/05/01 02:39:30;;;;;;;1.30;1.13;;;18.10;35.90;;;;;;6225524;23;20164;-83
2023/05/01 02:41:57;;;;;;;1.30;1.20;;;18.10;36.00;;;;;;6224869;23;20152;-83
2023/05/01 02:44:23;;;;;;;1.30;1.20;;;18.10;36.00;;;;;;6199674;23;20184;-83
2023/05/01 02:46:49;;;;;;;1.60;1.10;;;18.10;36.00;;;;;;6224374;23;20219;-84
2023/05/01 02:49:15;;;;;;;1.33;1.20;;;18.10;36.00;;;;;;6224673;23;20247;-82
2023/05/01 02:51:45;;;;;;;1.88;1.10;;;18.10;36.00;;;;;;6199247;23;20226;-84
2023/05/01 02:54:12;;;;;;;0.80;0.80;;;18.10;36.70;;;;;;6149109;23;20160;-84
2023/05/01 02:56:38;;;;;;;1.20;1.10;;;18.00;36.70;;;;;;6224153;23;20144;-83
2023/05/01 02:59:04;;;;;;;0.98;0.82;;;18.00;36.00;;;;;;6224584;23;20456;-83
2023/05/01 03:01:30;;;;;;;1.30;1.20;;;18.00;36.00;;;;;;6199051;23;20148;-84
2023/05/01 03:03:57;;;;;;;1.55;0.98;;;18.00;36.00;;;;;;6122662;23;20491;-83
2023/05/01 03:06:22;;;;;;;1.83;1.20;;;18.10;36.10;;;;;;6223519;23;20128;-83
2023/05/01 03:08:48;;;;;;;2.05;1.30;;;18.10;36.10;;;;;;6224202;23;20148;-84
2023/05/01 03:11:15;;;;;;;1.13;0.90;;;18.00;36.10;;;;;;6122808;23;20162;-83
2023/05/01 03:13:41;;;;;;;1.08;0.98;;;18.00;36.10;;;;;;6224082;23;20539;-84
2023/05/01 03:16:07;;;;;;;1.13;0.90;;;18.00;36.20;;;;;;6199145;23;20611;-84
2023/05/01 03:18:33;;;;;;;1.40;1.00;;;18.00;36.10;;;;;;6224674;23;20564;-84
2023/05/01 03:20:59;;;;;;;1.08;0.98;;;18.00;36.20;;;;;;6122614;23;20627;-84
2023/05/01 03:23:25;;;;;;;1.13;1.02;;;18.00;36.20;;;;;;6199384;23;20242;-83
2023/05/01 03:25:51;;;;;;;1.63;1.20;;;18.00;36.30;;;;;;6199019;23;20148;-84
2023/05/01 03:28:17;;;;;;;1.30;1.20;;;18.10;36.40;;;;;;6224088;23;20152;-83
2023/05/01 03:30:43;;;;;;;1.48;1.17;;;18.00;36.30;;;;;;6224290;23;20154;-83
2023/05/01 03:33:09;;;;;;;1.10;1.00;;;18.00;36.30;;;;;;6122325;22;20538;-84
2023/05/01 03:35:35;;;;;;;1.10;1.00;;;18.00;36.30;;;;;;6198600;23;20179;-83
2023/05/01 03:38:01;;;;;;;1.10;1.00;;;18.00;36.30;;;;;;6123089;23;20140;-83
2023/05/01 03:40:27;;;;;;;1.30;1.20;;;18.10;36.30;;;;;;6122341;23;20509;-84
2023/05/01 03:42:53;;;;;;;1.20;1.10;;;18.00;36.30;;;;;;6122139;23;20147;-83
2023/05/01 03:45:19;;;;;;;1.10;1.00;;;18.10;36.30;;;;;;6199084;23;20148;-84
2023/05/01 03:47:45;;;;;;;1.23;1.10;;;18.10;36.40;;;;;;6224013;23;20216;-83
2023/05/01 03:50:11;;;;;;;1.50;1.15;;;18.00;36.30;;;;;;6223805;23;20144;-83
2023/05/01 03:52:38;;;;;;;1.10;1.00;;;18.00;36.30;;;;;;6122462;23;20141;-83
2023/05/01 03:55:04;;;;;;;1.23;1.00;;;18.10;36.40;;;;;;6122170;23;20132;-83
2023/05/01 03:57:30;;;;;;;1.35;1.20;;;18.10;36.40;;;;;;6224152;23;20564;-83
2023/05/01 03:59:56;;;;;;;0.93;0.90;;;18.00;36.40;;;;;;6198568;23;20202;-84
2023/05/01 04:02:22;;;;;;;1.23;1.10;;;18.00;36.40;;;;;;6198974;23;20149;-83
2023/05/01 04:04:48;;;;;;;1.38;1.20;;;18.00;36.40;;;;;;6199185;23;20211;-83
2023/05/01 04:07:14;;;;;;;1.20;1.10;;;18.00;36.40;;;;;;6224212;23;20147;-84
2023/05/01 04:09:40;;;;;;;1.50;1.30;;;18.00;36.40;;;;;;6223804;23;20145;-84
2023/05/01 04:12:06;;;;;;;0.82;0.80;;;18.10;36.40;;;;;;6198810;23;20144;-84
2023/05/01 04:14:32;;;;;;;1.30;1.00;;;18.00;36.40;;;;;;6122012;23;20237;-84
2023/05/01 04:16:58;;;;;;;1.92;1.20;;;18.00;36.40;;;;;;6224207;23;20152;-84
2023/05/01 04:19:24;;;;;;;1.10;1.00;;;18.10;36.40;;;;;;6198349;23;20144;-83
2023/05/01 04:21:50;;;;;;;1.50;1.02;;;18.00;36.40;;;;;;6121926;23;20140;-83
2023/05/01 04:24:16;;;;;;;1.20;0.90;;;18.10;36.50;;;;;;6121878;23;20168;-83
2023/05/01 04:26:42;;;;;;;1.30;1.20;;;18.00;36.40;;;;;;6223732;23;20140;-83
2023/05/01 04:29:08;;;;;;;1.40;1.00;;;18.10;36.50;;;;;;6223769;23;20172;-84
2023/05/01 04:31:34;;;;;;;1.67;1.00;;;18.10;36.40;;;;;;6198477;23;20168;-83
2023/05/01 04:34:00;;;;;;;1.10;1.00;;;18.10;36.50;;;;;;6198075;23;20196;-83
2023/05/01 04:36:26;;;;;;;1.20;1.00;;;18.10;36.50;;;;;;6173586;23;20194;-83
2023/05/01 04:38:52;;;;;;;1.10;1.00;;;18.10;36.40;;;;;;6198379;23;20576;-83
2023/05/01 04:41:18;;;;;;;0.93;0.93;;;18.00;36.40;;;;;;6199082;23;20145;-83
2023/05/01 04:43:44;;;;;;;1.20;0.93;;;18.10;36.40;;;;;;6121892;23;20588;-84
2023/05/01 04:46:10;;;;;;;1.30;1.10;;;18.10;36.40;;;;;;6121637;23;20136;-83
2023/05/01 04:48:36;;;;;;;1.33;1.08;;;18.10;36.40;;;;;;6223679;23;20148;-84
2023/05/01 04:51:02;;;;;;;1.35;1.05;;;18.10;36.40;;;;;;6223538;23;20137;-83
2023/05/01 04:53:28;;;;;;;1.20;0.95;;;18.10;36.40;;;;;;6121630;23;20156;-83
2023/05/01 04:55:54;;;;;;;1.13;0.95;;;18.10;36.40;;;;;;6122259;23;20132;-83
2023/05/01 04:58:20;;;;;;;1.15;1.05;;;18.10;36.50;;;;;;6199898;23;20614;-84
2023/05/01 05:00:46;;;;;;;1.55;1.23;;;18.10;36.40;;;;;;6225144;23;20568;-83
2023/05/01 05:03:12;;;;;;;1.20;1.10;;;18.10;36.40;;;;;;6225361;23;20160;-83
2023/05/01 05:05:38;;;;;;;1.30;1.17;;;18.10;36.50;;;;;;6122872;23;20553;-83
2023/05/01 05:08:05;;;;;;;1.15;0.95;;;18.20;36.50;;;;;;6225610;23;20139;-83
2023/05/01 05:10:31;;;;;;;1.30;1.20;;;18.10;36.40;;;;;;6224770;23;20139;-83
2023/05/01 05:12:57;;;;;;;1.60;1.02;;;18.10;36.40;;;;;;6122942;23;20136;-84
2023/05/01 05:15:22;;;;;;;1.20;1.10;;;18.20;36.40;;;;;;6200491;23;20172;-84
2023/05/01 05:17:49;;;;;;;1.33;1.05;;;18.20;36.40;;;;;;6225374;23;20145;-84
2023/05/01 05:20:15;;;;;;;1.25;1.00;;;18.20;36.50;;;;;;6225486;23;20564;-83
2023/05/01 05:22:40;;;;;;;2.33;1.08;;;18.10;36.50;;;;;;6122905;23;20174;-84
2023/05/01 05:25:07;;;;;;;1.40;1.25;;;18.20;36.50;;;;;;6225091;23;20145;-84
2023/05/01 05:27:36;;;;;;;1.13;1.02;;;18.20;36.50;;;;;;6224961;23;20137;-83
2023/05/01 05:30:05;;;;;;;1.15;1.05;;;18.20;36.50;;;;;;6122936;23;20128;-83
2023/05/01 05:32:31;;;;;;;1.20;1.10;;;18.20;36.50;;;;;;6225552;23;20606;-83
2023/05/01 05:34:57;;;;;;;1.20;1.10;;;18.10;36.50;;;;;;6224769;23;20200;-84
2023/05/01 05:37:24;;;;;;;1.33;1.10;;;18.20;36.60;;;;;;6225263;23;20612;-84
2023/05/01 05:39:51;;;;;;;1.88;1.17;;;18.20;36.50;;;;;;6123034;23;20186;-84
2023/05/01 05:42:16;;;;;;;1.00;0.90;;;18.20;36.60;;;;;;6123074;23;20190;-83
2023/05/01 05:44:42;;;;;;;1.42;1.10;;;18.20;36.50;;;;;;6224694;23;20171;-84
2023/05/01 05:47:08;;;;;;;0.90;0.90;;;18.20;36.60;;;;;;6122982;23;20133;-83
2023/05/01 05:49:34;;;;;;;1.10;1.00;;;18.20;36.60;;;;;;6122834;23;20137;-83
2023/05/01 05:52:00;;;;;;;0.98;0.93;;;18.10;36.50;;;;;;6123102;23;20133;-84
2023/05/01 05:54:26;;;;;;;1.25;1.08;;;18.20;36.60;;;;;;6199697;23;20156;-83
2023/05/01 05:56:52;;;;;;;1.10;0.93;;;18.20;36.70;;;;;;6226318;23;20214;-84
2023/05/01 05:59:18;;;;;;;1.15;1.05;;;18.10;36.60;;;;;;6200127;23;20598;-84
2023/05/01 06:01:44;;;;;;;1.10;1.00;;;18.10;36.60;;;;;;6199688;23;20156;-84
2023/05/01 06:04:12;;;;;;;1.45;1.10;;;18.10;36.70;;;;;;6224886;23;20649;-84
2023/05/01 06:06:38;;;;;;;1.60;1.25;;;18.10;36.70;;;;;;6224673;23;20543;-84
2023/05/01 06:09:04;;;;;;;1.30;1.20;;;18.10;36.70;;;;;;6122689;23;20132;-84
2023/05/01 06:11:30;;;;;;;1.30;1.20;;;18.10;36.70;;;;;;6224771;23;20179;-83
2023/05/01 06:13:57;;;;;;;1.27;1.02;;;18.10;36.70;;;;;;6122858;23;20461;-84
2023/05/01 06:16:22;;;;;;;1.10;1.00;;;18.10;36.70;;;;;;6224193;23;20211;-85
2023/05/01 06:18:48;;;;;;;1.20;1.10;;;18.10;36.70;;;;;;6225389;23;20202;-83
2023/05/01 06:21:15;;;;;;;1.52;1.10;;;18.10;36.80;;;;;;6224928;23;20140;-84
2023/05/01 06:23:41;;;;;;;1.30;1.20;;;18.10;36.80;;;;;;6199324;23;20229;-84
2023/05/01 06:26:07;;;;;;;0.90;0.90;;;18.10;36.80;;;;;;6225326;23;20144;-84
2023/05/01 06:28:33;;;;;;;1.40;1.13;;;18.10;36.90;;;;;;6199211;23;20155;-83
2023/05/01 06:30:59;;;;;;;1.10;1.00;;;18.10;37.00;;;;;;6122567;23;20140;-85
2023/05/01 06:33:25;;;;;;;1.23;1.00;;;18.10;37.00;;;;;;6224033;23;20188;-83
2023/05/01 06:35:51;;;;;;;0.98;0.88;;;18.10;37.00;;;;;;6122626;23;20465;-83
2023/05/01 06:38:16;;;;;;;1.20;1.00;;;18.00;36.90;;;;;;6199420;23;20148;-84
2023/05/01 06:40:45;;;;;;;1.10;1.00;;;18.00;37.00;;;;;;6174558;23;20152;-83
2023/05/01 06:43:11;;;;;;;1.20;1.10;;;18.00;37.00;;;;;;6199717;23;20230;-83
2023/05/01 06:45:39;;;;;;;1.02;1.02;;;18.10;37.10;;;;;;6199513;23;20580;-83
2023/05/01 06:48:05;;;;;;;1.17;1.00;;;18.20;37.00;;;;;;6223129;23;20140;-83
2023/05/01 06:50:31;;;;;;;1.10;0.90;;;18.20;36.90;;;;;;6224662;23;20312;-84
2023/05/01 06:52:59;;;;;;;1.20;1.10;;;18.20;36.90;;;;;;6122559;23;20578;-84
2023/05/01 06:55:26;;;;;;;1.38;1.10;;;18.20;36.90;;;;;;6200147;23;20468;-84
2023/05/01 06:57:52;;;;;;;1.17;1.08;;;18.30;36.80;;;;;;6122538;23;20137;-84
2023/05/01 07:00:18;;;;;;;1.20;1.10;;;18.30;36.80;;;;;;6224435;23;20526;-83
2023/05/01 07:02:45;;;;;;;1.20;1.10;;;18.30;36.90;;;;;;6198846;23;20517;-84
2023/05/01 07:05:11;;;;;;;1.10;1.00;;;18.30;36.70;;;;;;6224015;23;20140;-83
2023/05/01 07:07:37;;;;;;;0.93;0.93;;;18.40;36.70;;;;;;6224801;23;20143;-84
2023/05/01 07:10:03;;;;;;;1.30;1.08;;;18.40;36.70;;;;;;6224282;23;20163;-84
2023/05/01 07:12:29;;;;;;;1.08;0.98;;;18.40;36.70;;;;;;6225288;23;20151;-85
2023/05/01 07:14:55;;;;;;;1.00;0.90;;;18.40;36.70;;;;;;6122800;23;20459;-83
2023/05/01 07:17:21;;;;;;;1.10;1.00;;;18.40;36.70;;;;;;6122475;23;20140;-84
2023/05/01 07:19:49;;;;;;;0.93;0.90;;;18.40;36.60;;;;;;6121865;23;20140;-83
2023/05/01 07:22:15;;;;;;;1.00;0.90;;;18.50;36.80;;;;;;6123316;23;20215;-84
2023/05/01 07:24:41;;;;;;;0.73;0.73;;;18.50;36.70;;;;;;6123165;23;20168;-83
2023/05/01 07:27:07;;;;;;;0.80;0.80;;;18.40;36.70;;;;;;6225575;23;20233;-83
2023/05/01 07:29:33;;;;;;;1.00;0.90;;;18.40;36.70;;;;;;6224726;23;20563;-83
2023/05/01 07:32:00;;;;;;;1.13;0.82;;;18.40;36.80;;;;;;6224019;23;20136;-83
2023/05/01 07:34:31;;;;;;;0.90;0.80;;;18.40;36.80;;;;;;6123083;22;20206;-85
2023/05/01 07:36:57;;;;;;;0.70;0.70;;;18.40;36.80;;;;;;6149443;23;20164;-83
2023/05/01 07:39:23;;;;;;;1.38;1.02;;;18.40;36.90;;;;;;6200160;23;20227;-84
2023/05/01 07:41:49;;;;;;;1.10;1.00;;;18.40;36.80;;;;;;6224479;23;20143;-84
2023/05/01 07:44:15;;;;;;;1.73;0.88;;;18.40;37.00;;;;;;6200605;23;20176;-83
2023/05/01 07:46:41;;;;;;;0.90;0.80;;;18.40;37.00;;;;;;6200615;23;20626;-84
2023/05/01 07:49:06;;;;;;;0.70;0.68;;;18.40;36.90;;;;;;6224368;23;20179;-83
2023/05/01 07:51:32;;;;;;;0.90;0.90;;;18.40;37.00;;;;;;6224132;23;20133;-83
2023/05/01 07:54:03;;;;;;;1.17;0.88;;;18.40;37.00;;;;;;6224795;23;20140;-83
2023/05/01 07:56:30;;;;;;;1.67;0.98;;;18.40;37.10;;;;;;6224478;23;20152;-84
2023/05/01 07:58:56;;;;;;;1.10;0.98;;;18.40;37.10;;;;;;6225170;23;20498;-83
2023/05/01 08:01:22;;;;;;;1.90;0.75;;;18.40;37.20;;;;;;6123172;23;20568;-83
2023/05/01 08:03:48;;;;;;;2.15;0.80;;;18.40;37.20;;;;;;6224118;23;20171;-83
2023/05/01 08:06:14;;;;;;;2.53;0.93;;;18.40;37.30;;;;;;6224534;23;20227;-84
2023/05/01 08:08:40;;;;;;;0.80;0.80;;;18.40;37.30;;;;;;6224786;23;20174;-83
2023/05/01 08:11:07;;;;;;;0.73;0.73;;;18.40;37.30;;;;;;6225129;23;20141;-83
2023/05/01 08:13:33;;;;;;;1.02;0.77;;;18.40;37.30;;;;;;6224182;23;20140;-82
2023/05/01 08:16:01;;;;;;;1.02;0.82;;;18.40;37.30;;;;;;6198697;23;20144;-83
2023/05/01 08:18:27;;;;;;;1.02;0.82;;;18.50;37.20;;;;;;6199827;23;20223;-83
2023/05/01 08:20:53;;;;;;;1.80;0.82;;;18.40;37.10;;;;;;6223973;23;20516;-82
2023/05/01 08:23:19;;;;;;;0.80;0.80;;;18.40;37.20;;;;;;6121866;23;20171;-82
2023/05/01 08:25:50;;;;;;;1.27;0.90;;;18.50;37.20;;;;;;6199369;23;20282;-82
2023/05/01 08:28:17;;;;;;;0.90;0.85;;;18.50;37.20;;;;;;6149438;23;20156;-82
2023/05/01 08:30:43;;;;;;;1.30;0.80;;;18.50;37.20;;;;;;6122256;23;20132;-82
2023/05/01 08:33:09;;;;;;;1.15;0.70;;;18.50;37.30;;;;;;6225234;22;20238;-82
2023/05/01 08:35:35;;;;;;;0.70;0.70;;;18.50;37.40;;;;;;6201224;23;20164;-81
2023/05/01 08:38:01;;;;;;;0.80;0.80;;;18.50;37.40;;;;;;6201652;23;20578;-81
2023/05/01 08:40:27;;;;;;;0.90;0.80;;;18.50;37.60;;;;;;6226526;23;20163;-82
2023/05/01 08:42:54;;;;;;;0.70;0.70;;;18.50;37.80;;;;;;6123952;23;20132;-82
2023/05/01 08:45:21;;;;;;;0.80;0.80;;;18.50;37.70;;;;;;6123862;23;20129;-83
2023/05/01 08:47:47;;;;;;;1.40;0.80;;;18.50;37.80;;;;;;6200499;23;20487;-83
2023/05/01 08:50:17;;;;;;;0.88;0.75;;;18.50;37.80;;;;;;6200592;23;20168;-84
2023/05/01 08:52:43;;;;;;;0.80;0.80;;;18.50;38.00;;;;;;6150216;23;20187;-83
2023/05/01 08:55:12;;;;;;;2.03;0.80;;;18.50;37.90;;;;;;6224881;23;20215;-83
2023/05/01 08:57:43;;;;;;;0.88;0.85;;;18.60;38.50;;;;;;6200119;23;20206;-83
2023/05/01 09:00:10;;;;;;;1.50;0.90;;;18.60;37.90;;;;;;6122781;23;20219;-83
2023/05/01 09:02:40;;;;;;;0.98;0.77;;;18.60;37.90;;;;;;6199755;23;20152;-84
2023/05/01 09:05:10;;;;;;;1.33;0.75;;;18.50;38.00;;;;;;6174309;23;20194;-82
2023/05/01 09:07:36;;;;;;;1.10;0.80;;;18.50;38.00;;;;;;6149880;23;20163;-82
2023/05/01 09:10:02;;;;;;;0.80;0.77;;;18.50;38.00;;;;;;6225273;23;20579;-83
2023/05/01 09:12:28;;;;;;;0.95;0.80;;;18.60;38.00;;;;;;6200075;23;20179;-83
2023/05/01 09:14:55;;;;;;;1.80;0.70;;;18.60;38.00;;;;;;6199516;23;20579;-83
2023/05/01 09:17:22;;;;;;;1.45;0.70;;;18.50;38.00;;;;;;6200288;23;20179;-83
2023/05/01 09:19:49;;;;;;;1.52;0.77;;;18.60;38.10;;;;;;6225560;23;20175;-83
2023/05/01 09:22:24;;;;;;;0.98;0.82;;;18.60;38.10;;;;;;6199993;23;20235;-83
2023/05/01 09:24:50;;;;;;;0.90;0.80;;;18.60;38.10;;;;;;6175638;23;20624;-83
2023/05/01 09:27:16;;;;;;;0.95;0.80;;;18.50;38.10;;;;;;6122617;23;20152;-82
2023/05/01 09:29:44;;;;;;;2.05;0.80;;;18.50;38.30;;;;;;6225062;23;20229;-83
2023/05/01 09:32:16;;;;;;;1.65;0.90;;;18.60;38.40;;;;;;6122682;23;20140;-84
2023/05/01 09:34:51;;;;;;;0.80;0.80;;;18.60;38.40;;;;;;6199400;23;20566;-83
2023/05/01 09:37:29;;;;;;;1.73;0.80;;;18.60;38.50;;;;;;6154441;23;20152;-82
2023/05/01 09:40:07;;;;;;;0.80;0.80;;;18.60;38.70;;;;;;6150181;23;20151;-83
2023/05/01 09:42:34;;;;;;;0.90;0.80;;;18.60;38.60;;;;;;6122819;23;20132;-82
2023/05/01 09:45:01;;;;;;;0.80;0.80;;;18.60;38.70;;;;;;6224336;23;20164;-81
2023/05/01 09:47:48;;;;;;;1.00;0.70;;;18.60;38.70;;;;;;6224091;23;20164;-82
2023/05/01 09:50:33;;;;;;;0.80;0.80;;;18.60;38.60;;;;;;6122465;22;20594;-82
2023/05/01 09:53:03;;;;;;;0.73;0.70;;;18.60;38.50;;;;;;6224341;23;20502;-82
2023/05/01 09:55:29;;;;;;;0.85;0.80;;;18.60;38.70;;;;;;6223161;23;20128;-82
2023/05/01 09:57:57;;;;;;;0.98;0.93;;;18.60;38.70;;;;;;6122285;23;20139;-82
2023/05/01 10:00:28;;;;;;;0.98;0.82;;;18.60;38.80;;;;;;6223207;23;20159;-83
2023/05/01 10:02:54;;;;;;;0.80;0.65;;;18.60;38.90;;;;;;6172610;23;20228;-83
2023/05/01 10:05:21;;;;;;;3.25;1.00;;;18.60;38.90;;;;;;6122210;23;20207;-82
2023/05/01 10:08:03;;;;;;;1.17;0.70;;;18.60;39.00;;;;;;6224573;23;20158;-83
2023/05/01 10:10:29;;;;;;;2.45;0.90;;;18.70;39.00;;;;;;6224258;23;20159;-82
2023/05/01 10:12:55;;;;;;;0.90;0.80;;;18.60;38.90;;;;;;6122184;23;20136;-82
2023/05/01 10:15:21;;;;;;;1.10;1.00;;;18.60;39.70;;;;;;6198904;23;20148;-83
2023/05/01 10:17:50;;;;;;;1.42;0.90;;;18.60;39.20;;;;;;6224118;23;20560;-82
2023/05/01 10:20:16;;;;;;;1.08;0.80;;;18.60;39.30;;;;;;6226638;23;20155;-82
2023/05/01 10:22:43;;;;;;;1.63;0.98;;;18.60;39.30;;;;;;6200164;23;20580;-82
2023/05/01 10:25:11;;;;;;;1.08;0.90;;;18.60;39.20;;;;;;6200850;23;20298;-83
2023/05/01 10:27:38;;;;;;;1.27;0.90;;;18.50;39.30;;;;;;6122290;23;20501;-82
2023/05/01 10:30:13;;;;;;;1.50;0.90;;;18.50;39.30;;;;;;6198834;23;20576;-82
2023/05/01 10:32:40;;;;;;;2.28;1.10;;;18.60;39.40;;;;;;6121730;23;20132;-82
2023/05/01 10:35:24;;;;;;;1.27;0.82;;;18.60;39.30;;;;;;6223797;23;20192;-83
2023/05/01 10:37:59;;;;;;;1.60;0.93;;;18.60;39.50;;;;;;6222547;23;20143;-83
2023/05/01 10:40:44;;;;;;;0.90;0.90;;;18.60;39.40;;;;;;6223451;23;20139;-83
2023/05/01 10:43:28;;;;;;;1.50;0.90;;;18.60;39.40;;;;;;6224123;23;20141;-83
2023/05/01 10:46:25;;;;;;;1.20;0.82;;;18.60;39.50;;;;;;6224741;23;20132;-82
2023/05/01 10:48:53;;;;;;;1.50;0.90;;;18.60;39.60;;;;;;6206939;23;20159;-82
2023/05/01 10:51:22;;;;;;;0.73;0.73;;;18.60;39.60;;;;;;6224295;23;20136;-82
2023/05/01 10:54:08;;;;;;;1.20;0.90;;;18.60;39.60;;;;;;6199559;23;20148;-84
2023/05/01 10:56:41;;;;;;;1.15;1.05;;;18.60;39.60;;;;;;6207970;23;20159;-83
2023/05/01 10:59:08;;;;;;;1.10;1.00;;;18.60;39.70;;;;;;6199489;23;20183;-83
2023/05/01 11:01:35;;;;;;;1.02;0.88;;;18.60;39.70;;;;;;6223976;23;20186;-82
2023/05/01 11:04:03;;;;;;;0.90;0.90;;;18.60;39.70;;;;;;6222750;23;20171;-83
2023/05/01 11:06:29;;;;;;;0.80;0.80;;;18.60;39.80;;;;;;6224349;23;20460;-83
2023/05/01 11:08:55;;;;;;;1.45;0.90;;;18.60;39.80;;;;;;6173886;23;20152;-83
2023/05/01 11:11:44;;;;;;;1.17;1.05;;;18.60;39.80;;;;;;6122580;23;20133;-83
2023/05/01 11:14:10;;;;;;;2.65;0.80;;;18.60;39.90;;;;;;6204714;23;20160;-83
2023/05/01 11:16:40;;;;;;;1.15;0.90;;;18.60;39.90;;;;;;6122761;23;20658;-83
2023/05/01 11:19:10;;;;;;;1.00;0.77;;;18.60;40.00;;;;;;6223284;23;20144;-83
2023/05/01 11:21:37;;;;;;;1.33;1.00;;;18.60;40.10;;;;;;6199368;23;20571;-82
2023/05/01 11:24:04;;;;;;;1.00;0.90;;;18.60;40.10;;;;;;6223279;23;20178;-83
2023/05/01 11:26:30;;;;;;;1.25;0.90;;;18.60;40.10;;;;;;6122507;23;20140;-83
2023/05/01 11:28:58;;;;;;;1.30;1.10;;;18.60;40.10;;;;;;6199412;23;20148;-83
2023/05/01 11:31:25;;;;;;;0.95;0.90;;;18.60;40.20;;;;;;6224189;23;20152;-84
2023/05/01 11:33:51;;;;;;;1.15;1.00;;;18.60;40.20;;;;;;6224281;23;20271;-83
2023/05/01 11:36:18;;;;;;;1.33;0.93;;;18.60;40.30;;;;;;6122993;23;20175;-82
2023/05/01 11:38:52;;;;;;;1.17;0.90;;;18.60;40.40;;;;;;6199258;23;20158;-83
2023/05/01 11:41:20;;;;;;;2.30;0.82;;;18.70;40.50;;;;;;6123086;23;20227;-84
2023/05/01 11:43:51;;;;;;;1.20;0.90;;;18.60;40.50;;;;;;6122695;23;20165;-83
2023/05/01 11:46:27;;;;;;;1.05;0.95;;;18.60;40.60;;;;;;6224294;23;20139;-83
2023/05/01 11:48:55;;;;;;;1.20;0.90;;;18.60;41.40;;;;;;6223509;23;20132;-83
2023/05/01 11:51:21;;;;;;;2.08;1.30;;;18.70;40.80;;;;;;6223933;23;20140;-83
2023/05/01 11:54:05;;;;;;;0.80;0.70;;;18.70;40.70;;;;;;6224747;23;20572;-83
2023/05/01 11:56:32;;;;;;;1.35;0.90;;;18.70;40.70;;;;;;6123485;23;20174;-83
2023/05/01 11:58:59;;;;;;;0.90;0.88;;;18.70;40.70;;;;;;6226198;23;20208;-82
2023/05/01 12:01:46;;;;;;;1.42;1.00;;;18.70;41.60;;;;;;6226748;23;20199;-82
2023/05/01 12:04:12;;;;;;;1.33;0.98;;;18.70;40.80;;;;;;6153696;23;20183;-84
2023/05/01 12:06:43;;;;;;;1.00;0.90;;;18.80;41.00;;;;;;6229897;23;20223;-84
2023/05/01 12:09:10;;;;;;;1.65;1.20;;;18.80;41.00;;;;;;6226328;23;20129;-84
2023/05/01 12:11:35;;;;;;;1.00;0.90;;;18.70;41.00;;;;;;6228688;23;20152;-82
2023/05/01 12:14:01;;;;;;;0.90;0.90;;;18.80;41.10;;;;;;6203731;23;20175;-85
2023/05/01 12:16:28;;;;;;;1.60;1.08;;;18.80;41.10;;;;;;6228360;23;20137;-84
2023/05/01 12:18:58;;;;;;;1.08;0.95;;;18.80;41.20;;;;;;6203528;23;20176;-84
2023/05/01 12:21:28;;;;;;;1.17;1.00;;;18.80;41.30;;;;;;6177049;23;20180;-83
2023/05/01 12:23:54;;;;;;;0.90;0.88;;;18.70;41.40;;;;;;6177614;23;20223;-84
2023/05/01 12:26:22;;;;;;;1.17;0.95;;;18.70;41.40;;;;;;6202157;23;20154;-83
2023/05/01 12:28:57;;;;;;;0.80;0.80;;;18.70;41.60;;;;;;6226573;23;20519;-84
2023/05/01 12:31:24;;;;;;;1.20;1.02;;;18.70;41.60;;;;;;6124711;23;20583;-83
2023/05/01 12:33:57;;;;;;;1.67;1.08;;;18.80;41.70;;;;;;6124568;22;20192;-84
2023/05/01 12:36:27;;;;;;;1.10;1.00;;;18.80;41.80;;;;;;6176142;23;20160;-83
2023/05/01 12:38:56;;;;;;;1.58;1.05;;;18.80;41.80;;;;;;6224282;23;20137;-83
2023/05/01 12:41:33;;;;;;;2.10;1.00;;;18.80;41.80;;;;;;6225038;23;20140;-83
2023/05/01 12:44:14;;;;;;;0.88;0.80;;;18.80;41.90;;;;;;6225379;23;20168;-83
2023/05/01 12:46:44;;;;;;;1.15;1.00;;;18.90;42.00;;;;;;6173644;23;20149;-83
2023/05/01 12:49:17;;;;;;;1.33;1.05;;;18.90;42.10;;;;;;6126607;23;20202;-84
2023/05/01 12:51:47;;;;;;;2.33;1.35;;;18.90;42.10;;;;;;6199855;23;20161;-84
2023/05/01 12:54:19;;;;;;;0.95;0.90;;;18.80;42.30;;;;;;6225276;23;20143;-84